createdAt,value
2022-11-03T00:01:41.157Z,97560.46
2022-11-03T00:11:47.653Z,97570.70
2022-11-03T00:21:51.359Z,97573.91
2022-11-03T00:31:55.032Z,97588.98
2022-11-03T00:41:58.817Z,97593.03
2022-11-03T00:52:02.581Z,97593.48
2022-11-03T01:02:06.501Z,97587.23
2022-11-03T01:12:19.002Z,97590.84
2022-11-03T01:22:24.195Z,97595.14
2022-11-03T01:32:28.586Z,97593.16
2022-11-03T01:42:32.259Z,97601.89
2022-11-03T01:52:53.865Z,97599.86
2022-11-03T02:02:57.672Z,97599.67
2022-11-03T02:13:04.190Z,97594.41
2022-11-03T02:23:40.222Z,97588.66
2022-11-03T02:33:56.901Z,97585.86
2022-11-03T02:44:03.231Z,97595.19
2022-11-03T02:54:16.841Z,97597.89
2022-11-03T03:04:36.425Z,97600.37
2022-11-03T03:14:42.633Z,97602.94
2022-11-03T03:24:54.039Z,97608.13
2022-11-03T03:35:00.958Z,97616.06
2022-11-03T03:45:06.155Z,97616.56
2022-11-03T03:55:18.509Z,97615.48
2022-11-03T04:05:22.175Z,97614.07
2022-11-03T04:15:44.728Z,97610.20
2022-11-03T04:25:54.471Z,97597.58
2022-11-03T04:36:00.014Z,97595.88
2022-11-03T04:46:04.448Z,97587.88
2022-11-03T04:56:15.554Z,97594.50
2022-11-03T05:06:23.435Z,97603.23
2022-11-03T05:16:27.345Z,97598.75
2022-11-03T05:26:34.604Z,97601.11
2022-11-03T05:36:38.947Z,97605.65
2022-11-03T05:46:42.637Z,97600.98
2022-11-03T05:56:46.612Z,97600.00
2022-11-03T06:06:56.278Z,97604.05
2022-11-03T06:17:10.820Z,97606.88
2022-11-03T06:27:22.819Z,97601.60
2022-11-03T06:37:31.466Z,97601.73
2022-11-03T06:47:35.448Z,97597.34
2022-11-03T06:57:42.366Z,97598.42
2022-11-03T07:07:47.488Z,97604.95
2022-11-03T07:17:52.267Z,97600.89
2022-11-03T07:27:58.187Z,97588.23
2022-11-03T07:38:10.037Z,97580.41
2022-11-03T07:48:24.546Z,97572.15
2022-11-03T07:58:41.305Z,97559.38
2022-11-03T08:08:45.696Z,97550.70
2022-11-03T08:18:49.649Z,97540.41
2022-11-03T08:28:53.673Z,97518.23
2022-11-03T08:38:57.393Z,97492.27
2022-11-03T08:49:01.472Z,97473.39
2022-11-03T08:59:05.221Z,97461.45
2022-11-03T09:19:32.619Z,97431.05
2022-11-03T09:29:58.321Z,97424.12
2022-11-03T09:40:00.216Z,97410.73
2022-11-03T09:50:05.508Z,97402.63
2022-11-03T10:00:21.260Z,97388.79
2022-11-03T10:10:26.372Z,97375.41
2022-11-03T10:20:30.024Z,97370.20
2022-11-03T10:30:45.290Z,97356.14
2022-11-03T10:40:55.967Z,97345.36
2022-11-03T10:50:59.947Z,97325.60
2022-11-03T11:01:04.370Z,97305.84
2022-11-03T11:11:08.604Z,97279.30
2022-11-03T11:21:15.577Z,97267.60
2022-11-03T11:31:30.352Z,97237.96
2022-11-03T11:42:12.723Z,97229.09
2022-11-03T11:52:19.153Z,97210.77
2022-11-03T12:02:30.484Z,97196.64
2022-11-03T12:12:34.355Z,97173.56
2022-11-03T12:22:43.605Z,97162.81
2022-11-03T12:32:48.148Z,97144.84
2022-11-03T12:42:52.410Z,97133.54
2022-11-03T12:52:56.169Z,97115.30
2022-11-03T13:02:59.957Z,97107.95
2022-11-03T13:13:04.352Z,97097.25
2022-11-03T13:23:08.867Z,97091.20
2022-11-03T13:33:13.092Z,97078.89
2022-11-03T13:43:17.376Z,97064.85
2022-11-03T14:14:11.277Z,97035.23
2022-11-03T14:24:15.727Z,97023.14
2022-11-03T14:34:20.093Z,97012.47
2022-11-03T14:44:24.593Z,97007.52
2022-11-03T14:54:29.902Z,96999.88
2022-11-03T15:04:33.978Z,96999.98
2022-11-03T15:14:38.261Z,96997.22
2022-11-03T15:35:07.684Z,96979.64
2022-11-03T15:45:16.160Z,96968.92
2022-11-03T15:55:20.455Z,96969.63
2022-11-03T16:05:25.459Z,96974.26
2022-11-03T16:15:29.405Z,96970.22
2022-11-03T16:25:33.422Z,96965.41
2022-11-03T16:35:37.660Z,96958.24
2022-11-03T16:45:42.497Z,96949.80
2022-11-03T16:55:48.984Z,96943.00
2022-11-03T17:05:53.070Z,96938.45
2022-11-03T17:15:58.280Z,96932.06
2022-11-03T17:26:03.612Z,96929.19
2022-11-03T17:36:08.960Z,96912.80
2022-11-03T17:46:13.648Z,96907.46
2022-11-03T17:56:34.944Z,96886.74
2022-11-03T18:06:40.829Z,96866.92
2022-11-03T18:16:47.978Z,96857.66
2022-11-03T18:26:52.073Z,96852.11
2022-11-03T18:36:56.751Z,96850.15
2022-11-03T18:47:12.372Z,96849.77
2022-11-03T18:57:22.405Z,96821.02
2022-11-03T19:07:30.873Z,96794.11
2022-11-03T19:17:37.144Z,96779.25
2022-11-03T19:27:46.473Z,96762.95
2022-11-03T19:38:00.485Z,96749.77
2022-11-03T19:58:31.989Z,96721.52
2022-11-03T20:08:39.474Z,96712.70
2022-11-03T20:18:44.919Z,96707.85
2022-11-03T20:28:51.158Z,96699.36
2022-11-03T20:38:59.819Z,96683.67
2022-11-03T20:49:05.025Z,96675.73
2022-11-03T20:59:12.700Z,96661.55
2022-11-03T21:09:18.652Z,96651.13
2022-11-03T21:19:58.819Z,96644.30
2022-11-03T21:30:03.707Z,96626.27
2022-11-03T21:40:08.884Z,96609.15
2022-11-03T21:50:12.546Z,96601.60
2022-11-03T22:00:17.350Z,96595.71
2022-11-03T22:10:21.334Z,96582.44
2022-11-03T22:20:43.717Z,96572.95
2022-11-03T22:31:07.232Z,96562.42
2022-11-03T22:41:43.342Z,96556.98
2022-11-03T22:51:47.216Z,96547.02
2022-11-03T23:01:53.708Z,96528.71
2022-11-03T23:11:57.941Z,96527.91
2022-11-03T23:22:02.302Z,96519.52
2022-11-03T23:32:06.265Z,96511.75
2022-11-03T23:42:10.138Z,96494.11
2022-11-03T23:52:13.915Z,96469.27
